Nezperce, ID (83543)

3:19 PM PST on March 02, 2015 (GMT -0800)
Highland Schools | Change Station
CLOSE
Current Station
Personal Weather Station
Location: Craigmont, ID
Elevation: 3783 ft
Nearby Weather Stations

Elev 3783 ft 46.24 °N, 116.47 °W | Updated 17 seconds ago

Mostly Cloudy
Mostly Cloudy
31.6 °F
Feels Like 22 °F
N
13.8
Wind Variable Wind from WNW
Gusts 13.8 mph

Today
High -- | Low -- °F
--% Chance of Precip.
Yesterday
High -- | Low -- °F
Precip. -- in
6:22 AM 5:32 PM
Waxing Gibbous, 93% visible
Pressure 29.84 in
Visibility 10.0 miles
Clouds Scattered Clouds 3000 ft
Mostly Cloudy 3900 ft
Overcast 4600 ft
Windchill 22 °F
Dew Point 27 °F
Humidity 84%
Rainfall 0.00 in
Snow Depth Not available.
UV 1 out of 12
Pollen 4.00 out of 12
Air Quality Not available.
Flu Activity Not available.
METAR KGIC 022255Z AUTO 34003G15KT 10SM SCT030 BKN039 OVC046 03/M05 A2984 RMK AO1 T00331052

More Conditions Fewer Conditions

Pressure 29.84 in
Visibility 10.0 miles
Clouds Scattered Clouds 3000 ft
Mostly Cloudy 3900 ft
Overcast 4600 ft
Windchill 22 °F
Dew Point 27 °F
Humidity 84%
Rainfall 0.00 in
Snow Depth Not available.
UV 1 out of 12
Pollen 4.00 out of 12
Air Quality Not available.
Flu Activity Not available.
METAR KGIC 022255Z AUTO 34003G15KT 10SM SCT030 BKN039 OVC046 03/M05 A2984 RMK AO1 T00331052

More Conditions Fewer Conditions

10-Day Weather Forecast

Almanac

Astronomy

Mar. 02, 2015 Rise Set
Actual Time
Civil Twilight
Nautical Twilight
Astronomical Twilight
Moon
Length of Visible Light
Length of Day
Tomorrow will be .
, % of the Moon is Illuminated

Today's Extremes

State Highs State Lows

Community

WunderPhotos

Upload Photos

1,801,995 photos uploaded!

WunderBlogs® & News

Nearby

Air Quality

  Air Quality AQ Index Pollutant
Not available.

Snow Depth

Station Depth Elevation

Earthquake Activity

City Distance Mag. Time & Date
Minimum magnitude displayed is 2.5.

Coastal Water Temperatures

Place Temperature

Nearby Weather Stations